Time;durP1;ratioP1;P1;durP2;ratioP2;P2;SDS_P1;SDS_P2;PMS_P1;PMS_P2;Temp;Humidity;BMP_temperature;BMP_pressure;BME280_temperature;BME280_humidity;BME280_pressure;Samples;Min_cycle;Max_cycle;Signal;HPM_P1;HPM_P2
2022/11/07 00:00:37;;;;;;;43.23;24.90;;;;;;;-141.28;100.00;48011.00;5113920;28;20206;-80
2022/11/07 00:03:04;;;;;;;51.83;28.10;;;;;;;-141.28;100.00;47993.34;5114047;28;20205;-76
2022/11/07 00:05:31;;;;;;;46.07;29.17;;;;;;;-141.28;100.00;47983.53;5114586;28;20252;-77
2022/11/07 00:07:58;;;;;;;55.90;32.03;;;;;;;-141.28;100.00;47967.84;5115035;28;20680;-77
2022/11/07 00:10:27;;;;;;;58.47;31.47;;;;;;;-141.28;100.00;47942.34;5113683;28;20238;-76
2022/11/07 00:12:54;;;;;;;42.90;26.63;;;;;;;-141.28;100.00;47932.53;5113861;28;20203;-76
2022/11/07 00:15:21;;;;;;;39.43;23.80;;;;;;;-141.28;100.00;47905.09;5113832;28;20232;-76
2022/11/07 00:17:47;;;;;;;31.43;22.60;;;;;;;-141.28;100.00;47901.16;5114006;28;20211;-80
2022/11/07 00:20:14;;;;;;;33.83;21.27;;;;;;;-141.28;100.00;47901.16;5100670;28;20681;-76
2022/11/07 00:22:41;;;;;;;34.07;20.50;;;;;;;-141.28;100.00;47897.25;5114208;28;20666;-77
2022/11/07 00:25:09;;;;;;;37.90;23.57;;;;;;;-141.28;100.00;47877.63;5114235;28;20617;-76
2022/11/07 00:27:37;;;;;;;46.17;27.33;;;;;;;-141.28;100.00;47873.69;5112765;28;20681;-76
2022/11/07 00:30:05;;;;;;;57.40;32.47;;;;;;;-141.28;100.00;47873.69;5113353;28;20197;-77
2022/11/07 00:32:32;;;;;;;59.87;35.03;;;;;;;-141.28;100.00;47865.84;5113641;28;20210;-76
2022/11/07 00:34:59;;;;;;;62.20;32.73;;;;;;;-141.28;100.00;47865.84;5113182;28;20676;-77
2022/11/07 00:37:26;;;;;;;48.50;25.67;;;;;;;-141.28;100.00;47854.09;5113924;28;20233;-75
2022/11/07 00:39:53;;;;;;;48.00;25.73;;;;;;;-141.28;100.00;47850.16;5113589;28;20199;-75
2022/11/07 00:42:20;;;;;;;58.13;30.57;;;;;;;-141.28;100.00;47846.25;5112977;28;20305;-79
2022/11/07 00:44:50;;;;;;;66.13;32.60;;;;;;;-141.28;100.00;47842.31;5112977;28;20209;-75
2022/11/07 00:47:16;;;;;;;69.63;36.43;;;;;;;-141.28;100.00;47836.44;5112980;28;20681;-75
2022/11/07 00:49:44;;;;;;;80.87;40.80;;;;;;;-141.28;100.00;47830.56;5113030;28;20198;-76
2022/11/07 00:52:10;;;;;;;100.90;49.00;;;;;;;-141.28;100.00;47834.47;5112647;28;20295;-78
2022/11/07 00:54:37;;;;;;;92.60;43.87;;;;;;;-141.28;100.00;47810.94;5112353;28;20203;-75
2022/11/07 00:57:04;;;;;;;69.73;36.43;;;;;;;-141.28;100.00;47826.63;5112900;28;20210;-77
2022/11/07 00:59:31;;;;;;;59.80;35.10;;;;;;;-141.28;100.00;47826.63;5115758;28;20259;-74
2022/11/07 01:01:59;;;;;;;56.13;34.27;;;;;;;-141.28;100.00;47826.63;5112879;28;20202;-79
2022/11/07 01:07:11;;;;;;;61.10;33.03;;;;;;;-141.28;100.00;47826.63;5121352;28;20299;-75
2022/11/07 01:09:37;;;;;;;59.03;31.97;;;;;;;-141.28;100.00;47828.59;5121639;28;20226;-75
2022/11/07 01:12:05;;;;;;;59.17;32.80;;;;;;;-141.28;100.00;47828.59;5112488;28;20296;-76
2022/11/07 01:14:32;;;;;;;61.57;34.40;;;;;;;-141.28;100.00;47838.41;5112550;28;20289;-78
2022/11/07 01:17:00;;;;;;;64.33;35.73;;;;;;;-141.28;100.00;47830.56;5115032;28;20231;-77
2022/11/07 01:19:27;;;;;;;53.17;30.07;;;;;;;-141.28;100.00;47828.59;5115106;28;20719;-75
2022/11/07 01:21:54;;;;;;;51.67;31.80;;;;;;;-141.28;100.00;47826.63;5113918;28;20555;-77
2022/11/07 01:24:23;;;;;;;53.80;32.17;;;;;;;-141.28;100.00;47826.63;5104355;28;20195;-76
2022/11/07 01:26:50;;;;;;;51.87;28.83;;;;;;;-141.28;100.00;47826.63;5112387;28;20195;-76
2022/11/07 01:29:19;;;;;;;57.67;31.90;;;;;;;-141.28;100.00;47826.63;5114612;28;20199;-75
2022/11/07 01:31:47;;;;;;;56.67;29.97;;;;;;;-141.28;100.00;47828.59;5118857;28;20250;-78
2022/11/07 01:34:16;;;;;;;45.83;26.93;;;;;;;-141.28;100.00;47828.59;5117297;28;20509;-76
2022/11/07 01:36:43;;;;;;;50.20;27.87;;;;;;;-141.28;100.00;47826.63;5114350;28;20213;-80
2022/11/07 01:39:10;;;;;;;50.10;28.73;;;;;;;-141.28;100.00;47838.41;5112077;28;20210;-76
2022/11/07 01:41:38;;;;;;;46.60;26.60;;;;;;;-141.28;100.00;47842.31;5097929;28;20206;-76
2022/11/07 01:44:43;;;;;;;41.13;24.47;;;;;;;-141.28;100.00;47830.56;5112066;28;20199;-76
2022/11/07 01:47:11;;;;;;;51.50;29.00;;;;;;;-141.28;100.00;47818.78;5112094;27;20201;-77
2022/11/07 01:49:41;;;;;;;41.67;25.63;;;;;;;-141.28;100.00;47822.72;5111871;28;20440;-75
2022/11/07 01:52:12;;;;;;;46.67;25.60;;;;;;;-141.28;100.00;47822.72;5112071;28;20604;-76
2022/11/07 01:54:45;;;;;;;49.20;26.57;;;;;;;-141.28;100.00;47822.72;5111752;28;20256;-76
2022/11/07 01:57:17;;;;;;;49.13;25.97;;;;;;;-141.28;100.00;47820.75;5113492;28;20276;-76
2022/11/07 01:59:44;;;;;;;40.47;23.53;;;;;;;-141.28;100.00;47824.66;5100306;28;20203;-76
2022/11/07 02:02:10;;;;;;;45.50;23.97;;;;;;;-141.28;100.00;47822.72;5111882;28;20199;-76
2022/11/07 02:04:39;;;;;;;41.30;24.43;;;;;;;-141.28;100.00;47830.56;5112245;28;20252;-76
2022/11/07 02:07:12;;;;;;;43.67;23.17;;;;;;;-141.28;100.00;47828.59;5112753;28;20202;-78
2022/11/07 02:09:39;;;;;;;46.30;24.17;;;;;;;-141.28;100.00;47828.59;5113325;28;20244;-75
2022/11/07 02:12:07;;;;;;;42.93;22.87;;;;;;;-141.28;100.00;47834.47;5112709;28;20625;-78
2022/11/07 02:14:34;;;;;;;44.17;23.83;;;;;;;-141.28;100.00;47836.44;5112254;28;20203;-78
2022/11/07 02:17:01;;;;;;;43.13;24.00;;;;;;;-141.28;100.00;47836.44;5112332;28;20231;-78
2022/11/07 02:19:35;;;;;;;40.67;24.50;;;;;;;-141.28;100.00;47834.47;5093622;28;20608;-75
2022/11/07 02:22:14;;;;;;;44.80;24.23;;;;;;;-141.28;100.00;47834.47;5111338;28;20447;-75
2022/11/07 02:24:42;;;;;;;40.77;24.57;;;;;;;-141.28;100.00;47838.41;5113409;28;20728;-75
2022/11/07 02:27:13;;;;;;;46.80;25.03;;;;;;;-141.28;100.00;47822.72;5113681;28;20854;-75
2022/11/07 02:29:42;;;;;;;39.60;24.77;;;;;;;-141.28;100.00;47830.56;5111895;28;20202;-79
2022/11/07 02:32:11;;;;;;;46.47;25.30;;;;;;;-141.28;100.00;47834.47;5111640;28;20233;-76
2022/11/07 02:34:40;;;;;;;48.53;25.23;;;;;;;-141.28;100.00;47830.56;5111741;28;20633;-77
2022/11/07 02:37:13;;;;;;;44.70;24.50;;;;;;;-141.28;100.00;47846.25;5111812;28;20203;-75
2022/11/07 02:39:40;;;;;;;44.03;25.30;;;;;;;-141.28;100.00;47846.25;5111689;28;20199;-75
2022/11/07 02:42:09;;;;;;;47.33;25.53;;;;;;;-141.28;100.00;47840.34;5111771;28;20460;-76
2022/11/07 02:44:36;;;;;;;56.90;27.10;;;;;;;-141.28;100.00;47840.34;5111347;28;20209;-79
2022/11/07 02:47:03;;;;;;;44.77;25.87;;;;;;;-141.28;100.00;47838.41;5111527;28;20214;-76
2022/11/07 02:49:30;;;;;;;46.40;25.80;;;;;;;-141.28;100.00;47838.41;5111692;28;20449;-76
2022/11/07 02:51:57;;;;;;;42.53;25.90;;;;;;;-141.28;100.00;47842.31;5111916;28;20233;-77
2022/11/07 02:54:23;;;;;;;47.43;25.53;;;;;;;-141.28;100.00;47842.31;5111732;28;20203;-77
2022/11/07 02:56:50;;;;;;;51.67;28.07;;;;;;;-141.28;100.00;47834.47;5111249;28;20680;-76
2022/11/07 02:59:18;;;;;;;47.37;26.37;;;;;;;-141.28;100.00;47838.41;5111335;28;20207;-76
2022/11/07 03:01:45;;;;;;;43.30;24.97;;;;;;;-141.28;100.00;47826.63;5111644;28;20498;-76
2022/11/07 03:04:12;;;;;;;44.17;25.03;;;;;;;-141.28;100.00;47820.75;5112231;28;20202;-79
2022/11/07 03:06:39;;;;;;;41.27;24.87;;;;;;;-141.28;100.00;47834.47;5111329;28;20199;-79
2022/11/07 03:09:06;;;;;;;39.50;25.30;;;;;;;-141.28;100.00;47834.47;5111361;28;20230;-78
2022/11/07 03:11:33;;;;;;;42.70;25.73;;;;;;;-141.28;100.00;47842.31;5110924;28;20258;-76
2022/11/07 03:14:00;;;;;;;42.67;24.07;;;;;;;-141.28;100.00;47846.25;5111308;28;20199;-77
2022/11/07 03:16:28;;;;;;;41.87;24.33;;;;;;;-141.28;100.00;47854.09;5111225;28;20524;-79
2022/11/07 03:18:55;;;;;;;39.30;24.37;;;;;;;-141.28;100.00;47856.03;5114846;28;20207;-77
2022/11/07 03:21:22;;;;;;;41.17;24.17;;;;;;;-141.28;100.00;47854.09;5114747;28;20210;-76
2022/11/07 03:23:48;;;;;;;37.50;23.93;;;;;;;-141.28;100.00;47869.78;5114640;28;20684;-77
2022/11/07 03:26:16;;;;;;;38.67;24.13;;;;;;;-141.28;100.00;47865.84;5114505;28;20194;-76
2022/11/07 03:28:43;;;;;;;34.37;22.43;;;;;;;-141.28;100.00;47873.69;5114563;28;20726;-78
2022/11/07 03:31:10;;;;;;;45.67;24.33;;;;;;;-141.28;100.00;47881.53;5114844;28;20218;-77
2022/11/07 03:33:38;;;;;;;36.13;23.20;;;;;;;-141.28;100.00;47885.47;5118776;28;20265;-77
2022/11/07 03:36:05;;;;;;;41.23;24.17;;;;;;;-141.28;100.00;47881.53;5115184;28;20203;-77
2022/11/07 03:38:32;;;;;;;42.70;24.57;;;;;;;-141.28;100.00;47889.38;5114465;28;20203;-79
2022/11/07 03:40:59;;;;;;;35.50;22.63;;;;;;;-141.28;100.00;47897.25;5114713;28;20203;-77
2022/11/07 03:43:26;;;;;;;47.10;24.70;;;;;;;-141.28;100.00;47897.25;5114462;28;20264;-78
2022/11/07 03:45:53;;;;;;;41.27;24.30;;;;;;;-141.28;100.00;47903.13;5114360;28;20218;-76
2022/11/07 03:48:20;;;;;;;45.37;24.37;;;;;;;-141.28;100.00;47912.94;5114067;28;20203;-77
2022/11/07 03:50:49;;;;;;;40.87;23.50;;;;;;;-141.28;100.00;47912.94;5106311;28;20204;-77
2022/11/07 03:53:16;;;;;;;46.67;28.80;;;;;;;-141.28;100.00;47926.66;5109108;28;20236;-76
2022/11/07 03:55:46;;;;;;;54.27;29.53;;;;;;;-141.28;100.00;47930.59;5114531;28;20248;-76
2022/11/07 03:58:14;;;;;;;60.20;30.57;;;;;;;-141.28;100.00;47920.78;5114184;28;20207;-79
2022/11/07 04:00:41;;;;;;;54.00;30.87;;;;;;;-141.28;100.00;47918.81;5113971;28;20206;-79
2022/11/07 04:03:08;;;;;;;57.37;30.23;;;;;;;-141.28;100.00;47920.78;5113565;28;20199;-74
2022/11/07 04:05:35;;;;;;;51.33;29.73;;;;;;;-141.28;100.00;47936.47;5115844;28;20267;-78
2022/11/07 04:08:04;;;;;;;52.53;28.90;;;;;;;-141.28;100.00;47924.69;5113871;28;20680;-76
2022/11/07 04:10:31;;;;;;;50.57;27.93;;;;;;;-141.28;100.00;47930.59;5114387;28;20205;-75
2022/11/07 04:18:28;;;;;;;57.23;29.13;;;;;;;-141.28;100.00;47897.25;5113964;28;20214;-77
2022/11/07 04:20:55;;;;;;;52.60;29.00;;;;;;;-141.28;100.00;47889.38;5113750;28;20948;-79
2022/11/07 04:23:24;;;;;;;56.93;30.03;;;;;;;-141.28;100.00;47897.25;5113997;28;20272;-75
2022/11/07 04:28:35;;;;;;;45.23;28.47;;;;;;;-141.28;100.00;47889.38;5112631;28;20206;-79
2022/11/07 04:31:01;;;;;;;50.33;28.53;;;;;;;-141.28;100.00;47887.44;5099822;28;20206;-77
2022/11/07 04:33:29;;;;;;;58.33;33.90;;;;;;;-141.28;100.00;47891.34;5113716;28;20696;-78
2022/11/07 04:35:55;;;;;;;79.20;50.83;;;;;;;-141.28;100.00;47901.16;5113532;28;20449;-75
2022/11/07 04:38:24;;;;;;;58.37;35.10;;;;;;;-141.28;100.00;47897.25;5113371;28;20746;-76
2022/11/07 04:40:54;;;;;;;61.83;37.83;;;;;;;-141.28;100.00;47905.09;5107064;28;20203;-79
2022/11/07 04:43:21;;;;;;;62.27;37.43;;;;;;;-141.28;100.00;47901.16;5106285;28;20298;-77
2022/11/07 04:45:49;;;;;;;50.20;32.17;;;;;;;-141.28;100.00;47912.94;5112859;28;20714;-75
2022/11/07 04:48:16;;;;;;;51.53;30.53;;;;;;;-141.28;100.00;47916.84;5112941;28;20586;-76
2022/11/07 04:50:43;;;;;;;54.37;31.10;;;;;;;-141.28;100.00;47928.63;5101718;28;20207;-78
2022/11/07 04:53:13;;;;;;;65.50;35.43;;;;;;;-141.28;100.00;47912.94;5114231;28;20226;-75
2022/11/07 04:55:43;;;;;;;56.10;35.20;;;;;;;-141.28;100.00;47926.66;5114808;28;20203;-76
2022/11/07 04:58:10;;;;;;;57.57;32.63;;;;;;;-141.28;100.00;47928.63;5113767;28;20207;-76
2022/11/07 05:00:37;;;;;;;66.50;30.93;;;;;;;-141.28;100.00;47936.47;5113656;28;20746;-77
2022/11/07 05:03:05;;;;;;;50.47;29.47;;;;;;;-141.28;100.00;47940.38;5112771;28;20210;-78
2022/11/07 05:05:31;;;;;;;50.80;28.50;;;;;;;-141.28;100.00;47940.38;5112885;28;20199;-76
2022/11/07 05:07:58;;;;;;;45.33;27.57;;;;;;;-141.28;100.00;47944.31;5113135;28;20227;-79
2022/11/07 05:10:27;;;;;;;50.17;29.60;;;;;;;-141.28;100.00;47948.22;5113674;28;20195;-76
2022/11/07 05:12:56;;;;;;;52.20;28.00;;;;;;;-141.28;100.00;47950.19;5112680;28;20250;-76
2022/11/07 05:15:24;;;;;;;53.20;31.47;;;;;;;-141.28;100.00;47952.16;5112796;28;20707;-76
2022/11/07 05:17:51;;;;;;;44.47;28.87;;;;;;;-141.28;100.00;47956.06;5112324;28;20556;-77
2022/11/07 05:20:29;;;;;;;54.23;30.33;;;;;;;-141.28;100.00;47956.06;5112312;28;20195;-78
2022/11/07 05:23:13;;;;;;;51.77;30.30;;;;;;;-141.28;100.00;47969.81;5112298;28;20198;-77
2022/11/07 05:25:42;;;;;;;54.90;32.23;;;;;;;-141.28;100.00;47952.16;5112185;28;20194;-76
2022/11/07 05:28:11;;;;;;;39.67;26.20;;;;;;;-141.28;100.00;47960.00;5111382;28;20251;-76
2022/11/07 05:30:39;;;;;;;45.73;27.93;;;;;;;-141.28;100.00;47983.53;5112041;28;20626;-77
2022/11/07 05:33:08;;;;;;;59.70;30.17;;;;;;;-141.28;100.00;47975.69;5112301;28;20229;-79
2022/11/07 05:35:35;;;;;;;51.53;30.47;;;;;;;-141.28;100.00;47971.78;5111981;28;20195;-76
2022/11/07 05:38:03;;;;;;;57.67;31.97;;;;;;;-141.28;100.00;47987.47;5114545;28;20199;-77
2022/11/07 05:40:34;;;;;;;54.73;29.97;;;;;;;-141.28;100.00;48003.16;5114549;28;20199;-80
2022/11/07 05:43:05;;;;;;;60.47;31.77;;;;;;;-141.28;100.00;47991.38;5112303;28;20275;-76
2022/11/07 05:45:36;;;;;;;54.00;30.03;;;;;;;-141.28;100.00;48001.19;5112479;28;20219;-78
2022/11/07 05:48:05;;;;;;;51.73;27.93;;;;;;;-141.28;100.00;48018.84;5112059;28;20203;-79
2022/11/07 05:50:33;;;;;;;56.03;29.10;;;;;;;-141.28;100.00;48028.66;5117952;28;20207;-76
2022/11/07 05:52:59;;;;;;;51.13;28.63;;;;;;;-141.28;100.00;48028.66;5120297;28;20230;-75
2022/11/07 05:55:26;;;;;;;45.77;27.30;;;;;;;-141.28;100.00;48054.16;5115315;28;20259;-77
2022/11/07 05:57:54;;;;;;;63.90;31.93;;;;;;;-141.28;100.00;48077.69;5113645;28;20232;-77
2022/11/07 06:00:22;;;;;;;46.37;28.30;;;;;;;-141.28;100.00;48085.53;5112946;28;20220;-77
2022/11/07 06:02:55;;;;;;;49.23;27.57;;;;;;;-141.28;100.00;48089.47;5111962;28;20194;-77
2022/11/07 06:05:22;;;;;;;51.63;28.57;;;;;;;-141.28;100.00;48089.47;5112602;28;20312;-75
2022/11/07 06:07:49;;;;;;;53.27;27.90;;;;;;;-141.28;100.00;48113.00;5112694;28;20203;-75
2022/11/07 06:10:16;;;;;;;42.07;26.27;;;;;;;-141.28;100.00;48122.81;5114402;28;20207;-77
2022/11/07 06:12:43;;;;;;;47.13;27.00;;;;;;;-141.28;100.00;48132.59;5106355;28;20223;-79
2022/11/07 06:15:12;;;;;;;49.20;30.27;;;;;;;-141.28;100.00;48136.53;5104503;28;20203;-75
2022/11/07 06:17:39;;;;;;;58.23;32.37;;;;;;;-141.28;100.00;48152.22;5071073;28;20208;-79
2022/11/07 06:20:09;;;;;;;53.97;31.63;;;;;;;-141.28;100.00;48109.06;5071552;28;20646;-75
2022/11/07 06:22:38;;;;;;;54.83;32.87;;;;;;;-141.28;100.00;48167.91;5058628;28;20401;-77
2022/11/07 06:25:07;;;;;;;58.80;31.53;;;;;;;-141.28;100.00;48191.44;5071095;28;20253;-77
2022/11/07 06:27:34;;;;;;;53.10;30.70;;;;;;;-141.28;100.00;48195.38;5070730;28;20231;-77
2022/11/07 06:30:01;;;;;;;56.63;30.23;;;;;;;-141.28;100.00;48211.06;5070866;28;20200;-79
2022/11/07 06:32:29;;;;;;;49.20;30.10;;;;;;;-141.28;100.00;48232.66;5070594;28;20748;-78
2022/11/07 06:34:56;;;;;;;55.73;32.70;;;;;;;-141.28;100.00;48242.47;5071493;28;20208;-77
2022/11/07 06:37:26;;;;;;;59.10;33.23;;;;;;;-141.28;100.00;48262.06;5070771;28;20200;-79
2022/11/07 06:39:53;;;;;;;53.53;31.30;;;;;;;-141.28;100.00;48273.84;5071567;28;20201;-77
2022/11/07 06:42:20;;;;;;;55.03;30.77;;;;;;;-141.28;100.00;48289.53;5070747;28;20211;-76
2022/11/07 06:44:47;;;;;;;55.67;29.43;;;;;;;-141.28;100.00;48313.06;5070353;28;20212;-76
2022/11/07 06:47:14;;;;;;;54.40;28.37;;;;;;;-141.28;100.00;48328.75;5070691;28;20266;-78
2022/11/07 06:49:42;;;;;;;49.13;28.60;;;;;;;-141.28;100.00;48348.38;5070904;28;20204;-78
2022/11/07 06:52:08;;;;;;;49.90;30.77;;;;;;;-141.28;100.00;48395.47;5072279;28;20310;-76
2022/11/07 06:54:37;;;;;;;64.33;33.97;;;;;;;-141.28;100.00;48383.69;5074244;28;20649;-77
2022/11/07 06:57:04;;;;;;;61.17;36.23;;;;;;;-141.28;100.00;48399.38;5074500;28;20636;-76
2022/11/07 06:59:31;;;;;;;51.40;33.13;;;;;;;-141.28;100.00;48422.94;5074254;28;20207;-77
2022/11/07 07:01:57;;;;;;;50.33;31.37;;;;;;;-141.28;100.00;48383.69;5074409;28;20748;-77
2022/11/07 07:04:24;;;;;;;50.43;29.30;;;;;;;-141.28;100.00;48458.22;5074563;28;20281;-78
2022/11/07 07:06:51;;;;;;;53.40;31.60;;;;;;;-141.28;100.00;48477.84;5074525;28;20601;-78
2022/11/07 07:09:18;;;;;;;44.27;28.83;;;;;;;-141.28;100.00;48505.31;5074430;28;20314;-76
2022/11/07 07:11:47;;;;;;;45.77;29.70;;;;;;;-141.28;100.00;48524.94;5074591;28;20261;-75
2022/11/07 07:14:14;;;;;;;47.93;29.33;;;;;;;-141.28;100.00;48524.94;5074459;28;20648;-76
2022/11/07 07:16:40;;;;;;;44.00;29.47;;;;;;;-141.28;100.00;48552.41;5100218;28;20379;-77
2022/11/07 07:19:07;;;;;;;47.80;27.80;;;;;;;-141.28;100.00;48579.88;5114704;28;20256;-78
2022/11/07 07:21:34;;;;;;;47.77;29.43;;;;;;;-141.28;100.00;48579.88;5114585;28;20264;-77
2022/11/07 07:24:01;;;;;;;52.97;29.13;;;;;;;-141.28;100.00;48603.41;5114221;28;20203;-75
2022/11/07 07:26:28;;;;;;;58.20;32.93;;;;;;;-141.28;100.00;48611.25;5116954;28;20572;-74
2022/11/07 07:28:57;;;;;;;54.20;33.63;;;;;;;-141.28;100.00;48634.78;5114587;28;20199;-79
2022/11/07 07:31:29;;;;;;;50.60;33.83;;;;;;;-141.28;100.00;48664.22;5114439;28;20206;-77
2022/11/07 07:33:57;;;;;;;47.90;30.03;;;;;;;-141.28;100.00;48672.06;5123431;28;20232;-75
2022/11/07 07:36:24;;;;;;;49.23;31.57;;;;;;;-141.28;100.00;48689.72;5123923;28;20191;-72
2022/11/07 07:38:52;;;;;;;51.70;31.43;;;;;;;-141.28;100.00;48697.56;5123841;28;20199;-77
2022/11/07 07:41:20;;;;;;;47.83;29.70;;;;;;;-141.28;100.00;48725.03;5121705;28;20206;-74
2022/11/07 07:43:47;;;;;;;50.60;31.30;;;;;;;-141.28;100.00;48748.56;5107596;28;20206;-75
2022/11/07 07:46:19;;;;;;;50.67;29.23;;;;;;;-141.28;100.00;48768.19;5122826;28;20191;-76
2022/11/07 07:48:46;;;;;;;42.07;28.27;;;;;;;-141.28;100.00;48811.34;5114261;28;20199;-76
2022/11/07 07:51:13;;;;;;;49.00;29.73;;;;;;;-141.28;100.00;48823.13;5114109;28;20207;-75
2022/11/07 07:53:40;;;;;;;47.80;28.00;;;;;;;-141.28;100.00;48862.38;5111616;28;20291;-76
2022/11/07 07:56:08;;;;;;;52.43;28.63;;;;;;;-141.28;100.00;48925.16;5103468;28;20251;-76
2022/11/07 07:58:35;;;;;;;49.57;27.63;;;;;;;-141.28;100.00;48956.53;5114278;28;20199;-75
2022/11/07 08:01:02;;;;;;;48.30;29.20;;;;;;;-141.28;100.00;48931.03;5114502;28;20272;-79
2022/11/07 08:03:31;;;;;;;46.73;28.53;;;;;;;-141.28;100.00;49070.34;5112929;28;20275;-76
2022/11/07 08:05:59;;;;;;;56.30;29.87;;;;;;;-141.28;100.00;49117.44;5114222;28;20199;-78
2022/11/07 08:08:27;;;;;;;57.23;31.30;;;;;;;-141.28;100.00;49137.06;5113792;28;20215;-77
2022/11/07 08:10:54;;;;;;;51.53;30.47;;;;;;;-141.28;100.00;49152.75;5113794;28;20244;-75
2022/11/07 08:13:23;;;;;;;53.43;30.03;;;;;;;-141.28;100.00;49197.88;5113242;28;20256;-75
2022/11/07 08:15:50;;;;;;;47.10;29.33;;;;;;;-141.28;100.00;49246.94;5113359;28;20235;-77
2022/11/07 08:18:18;;;;;;;52.63;29.47;;;;;;;-141.28;100.00;49093.88;5112720;28;20232;-75
2022/11/07 08:20:47;;;;;;;62.50;33.93;;;;;;;-141.28;100.00;49380.34;5113452;28;20194;-77
2022/11/07 08:23:13;;;;;;;74.23;34.77;;;;;;;-141.28;100.00;49417.63;5113017;28;20198;-77
2022/11/07 08:25:41;;;;;;;56.83;31.80;;;;;;;-141.28;100.00;49458.84;5113709;28;20221;-78
2022/11/07 08:28:07;;;;;;;54.23;29.93;;;;;;;-141.28;100.00;49488.28;5112595;28;20235;-76
2022/11/07 08:30:34;;;;;;;49.40;29.73;;;;;;;-141.28;100.00;49515.75;5113116;28;20232;-78
2022/11/07 08:33:03;;;;;;;48.73;28.00;;;;;;;-141.28;100.00;49545.19;5113491;28;20680;-76
2022/11/07 08:35:30;;;;;;;59.07;28.47;;;;;;;-141.28;100.00;49588.34;5113211;28;20198;-76
2022/11/07 08:37:58;;;;;;;40.93;23.83;;;;;;;-141.28;100.00;49606.03;5115894;28;20680;-76
2022/11/07 08:40:26;;;;;;;37.80;22.50;;;;;;;-141.28;100.00;49657.03;5113785;28;20285;-77
2022/11/07 08:42:58;;;;;;;37.53;24.17;;;;;;;-141.28;100.00;49655.09;5103828;28;20233;-77
2022/11/07 08:45:25;;;;;;;42.00;23.63;;;;;;;-141.28;100.00;49576.59;5113228;28;20217;-77
2022/11/07 08:47:56;;;;;;;41.07;22.80;;;;;;;-141.28;100.00;49662.94;5113018;28;20238;-76
2022/11/07 08:50:24;;;;;;;41.20;22.37;;;;;;;-141.28;100.00;49678.63;5113141;28;20533;-77
2022/11/07 08:52:51;;;;;;;37.87;22.47;;;;;;;-141.28;100.00;49721.81;5113432;28;20233;-75
2022/11/07 08:55:19;;;;;;;39.77;22.87;;;;;;;-141.28;100.00;49680.59;5114692;28;20211;-77
2022/11/07 08:57:46;;;;;;;39.97;24.10;;;;;;;-141.28;100.00;49876.84;5112961;28;20665;-78
2022/11/07 09:00:14;;;;;;;37.70;22.47;;;;;;;-141.28;100.00;49951.41;5113192;28;20240;-78
2022/11/07 09:02:41;;;;;;;44.70;23.97;;;;;;;-141.28;100.00;50045.63;5113276;28;20210;-76
2022/11/07 09:05:09;;;;;;;39.30;23.93;;;;;;;-141.28;100.00;50133.94;5112928;28;20199;-78
2022/11/07 09:07:38;;;;;;;47.70;28.03;;;;;;;-141.28;100.00;50234.03;5112557;28;20657;-77
2022/11/07 09:10:06;;;;;;;51.53;27.00;;;;;;;-141.28;100.00;50224.22;5112919;28;20219;-79
2022/11/07 09:12:35;;;;;;;47.30;24.93;;;;;;;-141.28;100.00;50228.16;5102607;28;20203;-76
2022/11/07 09:15:03;;;;;;;42.90;23.53;;;;;;;-141.28;100.00;50251.69;5116114;28;20222;-77
2022/11/07 09:17:30;;;;;;;44.27;21.37;;;;;;;-141.28;100.00;50296.84;5117671;28;20297;-75
2022/11/07 09:19:57;;;;;;;38.00;18.57;;;;;;;-141.28;100.00;50357.69;5115766;28;20203;-75
2022/11/07 09:23:17;;;;;;;41.53;21.63;;;;;;;-141.28;100.00;50420.50;5116307;28;20551;-76
2022/11/07 09:25:44;;;;;;;37.67;22.87;;;;;;;-141.28;100.00;50471.53;5107727;28;20199;-76
2022/11/07 09:28:12;;;;;;;37.83;21.03;;;;;;;-141.28;100.00;50334.13;5112934;28;20194;-75
2022/11/07 09:30:39;;;;;;;46.17;22.73;;;;;;;-141.28;100.00;50275.25;5114544;28;20207;-76
2022/11/07 09:33:06;;;;;;;36.53;19.40;;;;;;;-141.28;100.00;50345.91;5114826;28;20694;-75
2022/11/07 09:35:33;;;;;;;35.77;19.77;;;;;;;-141.28;100.00;50416.56;5114416;27;20218;-76
2022/11/07 09:38:00;;;;;;;36.53;18.80;;;;;;;-141.28;100.00;50479.38;5114345;28;20529;-76
2022/11/07 09:40:39;;;;;;;26.97;18.00;;;;;;;-141.28;100.00;50546.13;5115409;28;20206;-77
2022/11/07 09:43:29;;;;;;;33.90;19.80;;;;;;;-141.28;100.00;50538.28;5115750;28;20665;-77
2022/11/07 09:46:03;;;;;;;39.97;20.43;;;;;;;-141.28;100.00;50506.88;5114798;28;20563;-77
2022/11/07 09:48:38;;;;;;;37.10;19.53;;;;;;;-141.28;100.00;50379.28;5112705;28;20557;-76
2022/11/07 09:51:10;;;;;;;34.00;19.00;;;;;;;-141.28;100.00;50247.78;5113092;28;20194;-76
2022/11/07 09:53:42;;;;;;;30.43;18.37;;;;;;;-141.28;100.00;50261.50;5114016;28;20226;-75
2022/11/07 09:56:12;;;;;;;40.90;19.40;;;;;;;-141.28;100.00;50239.94;5114150;28;20734;-77
2022/11/07 09:58:43;;;;;;;33.67;18.37;;;;;;;-141.28;100.00;50359.66;5114348;28;20202;-76
2022/11/07 10:01:13;;;;;;;35.03;17.70;;;;;;;-141.28;100.00;50593.22;5115953;28;20252;-77
2022/11/07 10:03:41;;;;;;;37.07;17.23;;;;;;;-141.28;100.00;50705.13;5114552;28;20206;-78
2022/11/07 10:06:23;;;;;;;30.60;16.43;;;;;;;-141.28;100.00;50693.34;5114707;28;20730;-77
2022/11/07 10:08:54;;;;;;;26.67;15.23;;;;;;;-141.28;100.00;50555.94;5115342;28;20246;-76
2022/11/07 10:11:34;;;;;;;21.37;14.83;;;;;;;-141.28;100.00;50361.63;5116543;28;20284;-79
2022/11/07 10:14:17;;;;;;;31.60;16.73;;;;;;;-141.28;100.00;50349.84;5103152;28;20273;-76
2022/11/07 10:16:57;;;;;;;24.97;14.97;;;;;;;-141.28;100.00;50273.28;5115976;28;20666;-75
2022/11/07 10:19:42;;;;;;;26.63;15.07;;;;;;;-141.28;100.00;50241.88;5116179;28;20210;-77
2022/11/07 10:22:23;;;;;;;28.73;15.63;;;;;;;-141.28;100.00;50165.34;5109738;28;20694;-76
2022/11/07 10:25:04;;;;;;;31.23;15.33;;;;;;;-141.28;100.00;50139.81;5112909;28;20621;-79
2022/11/07 10:27:31;;;;;;;26.97;14.73;;;;;;;-141.28;100.00;50131.97;5116357;28;20283;-76
2022/11/07 10:30:01;;;;;;;23.90;14.33;;;;;;;-141.28;100.00;50239.94;5118667;28;20202;-76
2022/11/07 10:32:35;;;;;;;23.60;13.07;;;;;;;-141.28;100.00;50520.59;5116033;28;20260;-74
2022/11/07 10:35:16;;;;;;;24.10;12.73;;;;;;;-141.28;100.00;50236.00;5115460;28;20221;-76
2022/11/07 10:37:42;;;;;;;18.93;12.07;;;;;;;-141.28;100.00;50314.50;5117119;28;20230;-74
2022/11/07 10:40:16;;;;;;;24.97;12.77;;;;;;;-141.28;100.00;50200.66;5119598;28;20203;-76
2022/11/07 10:42:46;;;;;;;16.53;10.73;;;;;;;-141.28;100.00;50226.19;5106763;28;20198;-76
2022/11/07 10:45:17;;;;;;;22.90;12.17;;;;;;;-141.28;100.00;50247.78;5119142;28;20211;-77
2022/11/07 10:47:56;;;;;;;23.00;12.80;;;;;;;-141.28;100.00;50283.09;5118193;28;20237;-76
2022/11/07 10:50:24;;;;;;;24.27;13.27;;;;;;;-141.28;100.00;50247.78;5114147;28;20259;-76
2022/11/07 10:52:56;;;;;;;20.57;12.03;;;;;;;-141.28;100.00;50263.47;5112457;28;20199;-75
2022/11/07 10:55:25;;;;;;;21.53;12.13;;;;;;;-141.28;100.00;50330.22;5119905;28;20198;-76
2022/11/07 10:57:58;;;;;;;24.60;12.47;;;;;;;-141.28;100.00;50402.84;5120592;28;20199;-77
2022/11/07 11:00:28;;;;;;;18.90;12.07;;;;;;;-141.28;100.00;50357.69;5119840;28;20191;-76
2022/11/07 11:02:56;;;;;;;25.33;12.60;;;;;;;-141.28;100.00;50389.09;5120061;28;20206;-75
2022/11/07 11:05:27;;;;;;;19.63;12.27;;;;;;;-141.28;100.00;50557.91;5118251;28;20222;-76
2022/11/07 11:07:56;;;;;;;18.33;11.90;;;;;;;-141.28;100.00;50793.47;5115721;28;20207;-75
2022/11/07 11:10:26;;;;;;;25.33;12.27;;;;;;;-141.28;100.00;50985.84;5114397;28;20318;-76
2022/11/07 11:12:53;;;;;;;22.87;12.47;;;;;;;-141.28;100.00;51201.81;5115016;28;20203;-78